sensor_id;sensor_type;location;lat;lon;timestamp;temperature;humidity
10702;DHT22;5402;50.004;8.246;2024-03-08T00:00:04;6.00;99.90
10702;DHT22;5402;50.004;8.246;2024-03-08T00:02:35;6.00;99.90
10702;DHT22;5402;50.004;8.246;2024-03-08T00:05:02;5.90;99.90
10702;DHT22;5402;50.004;8.246;2024-03-08T00:07:29;6.00;99.90
10702;DHT22;5402;50.004;8.246;2024-03-08T00:09:57;5.90;99.90
10702;DHT22;5402;50.004;8.246;2024-03-08T00:12:24;5.90;99.90
10702;DHT22;5402;50.004;8.246;2024-03-08T00:14:51;5.80;99.90
10702;DHT22;5402;50.004;8.246;2024-03-08T00:17:18;5.70;99.90
10702;DHT22;5402;50.004;8.246;2024-03-08T00:19:45;5.70;99.90
10702;DHT22;5402;50.004;8.246;2024-03-08T00:22:11;5.70;99.90
10702;DHT22;5402;50.004;8.246;2024-03-08T00:24:38;5.70;99.90
10702;DHT22;5402;50.004;8.246;2024-03-08T00:27:06;5.70;99.90
10702;DHT22;5402;50.004;8.246;2024-03-08T00:29:34;5.60;99.90
10702;DHT22;5402;50.004;8.246;2024-03-08T00:32:01;5.60;99.90
10702;DHT22;5402;50.004;8.246;2024-03-08T00:34:28;5.60;99.90
10702;DHT22;5402;50.004;8.246;2024-03-08T00:36:54;5.50;99.90
10702;DHT22;5402;50.004;8.246;2024-03-08T00:39:21;5.40;99.90
10702;DHT22;5402;50.004;8.246;2024-03-08T00:41:48;5.40;99.90
10702;DHT22;5402;50.004;8.246;2024-03-08T00:44:16;5.30;99.90
10702;DHT22;5402;50.004;8.246;2024-03-08T00:46:43;5.20;99.90
10702;DHT22;5402;50.004;8.246;2024-03-08T00:49:10;5.20;99.90
10702;DHT22;5402;50.004;8.246;2024-03-08T00:51:39;5.20;99.90
10702;DHT22;5402;50.004;8.246;2024-03-08T00:54:06;5.20;99.90
10702;DHT22;5402;50.004;8.246;2024-03-08T00:56:32;5.10;99.90
10702;DHT22;5402;50.004;8.246;2024-03-08T00:59:00;5.10;99.90
10702;DHT22;5402;50.004;8.246;2024-03-08T01:01:29;5.00;99.90
10702;DHT22;5402;50.004;8.246;2024-03-08T01:03:55;5.00;99.90
10702;DHT22;5402;50.004;8.246;2024-03-08T01:06:23;4.90;99.90
10702;DHT22;5402;50.004;8.246;2024-03-08T01:08:50;4.90;99.90
10702;DHT22;5402;50.004;8.246;2024-03-08T01:11:18;4.80;99.90
10702;DHT22;5402;50.004;8.246;2024-03-08T01:13:45;4.80;99.90
10702;DHT22;5402;50.004;8.246;2024-03-08T01:16:12;4.80;99.90
10702;DHT22;5402;50.004;8.246;2024-03-08T01:18:40;4.70;99.90
10702;DHT22;5402;50.004;8.246;2024-03-08T01:21:07;4.70;99.90
10702;DHT22;5402;50.004;8.246;2024-03-08T01:23:34;4.70;99.90
10702;DHT22;5402;50.004;8.246;2024-03-08T01:26:01;4.60;99.90
10702;DHT22;5402;50.004;8.246;2024-03-08T01:28:28;4.70;99.90
10702;DHT22;5402;50.004;8.246;2024-03-08T01:30:54;4.60;99.90
10702;DHT22;5402;50.004;8.246;2024-03-08T01:33:22;4.60;99.90
10702;DHT22;5402;50.004;8.246;2024-03-08T01:35:51;4.50;99.90
10702;DHT22;5402;50.004;8.246;2024-03-08T01:38:18;4.50;99.90
10702;DHT22;5402;50.004;8.246;2024-03-08T01:40:46;4.50;99.90
10702;DHT22;5402;50.004;8.246;2024-03-08T01:43:19;4.40;99.90
10702;DHT22;5402;50.004;8.246;2024-03-08T01:45:47;4.40;99.90
10702;DHT22;5402;50.004;8.246;2024-03-08T01:48:15;4.30;99.90
10702;DHT22;5402;50.004;8.246;2024-03-08T01:50:44;4.30;99.90
10702;DHT22;5402;50.004;8.246;2024-03-08T01:53:13;4.30;99.90
10702;DHT22;5402;50.004;8.246;2024-03-08T01:55:41;4.30;99.90
10702;DHT22;5402;50.004;8.246;2024-03-08T01:58:10;4.20;99.90
10702;DHT22;5402;50.004;8.246;2024-03-08T02:00:39;4.20;99.90
10702;DHT22;5402;50.004;8.246;2024-03-08T02:03:06;4.20;99.90
10702;DHT22;5402;50.004;8.246;2024-03-08T02:05:33;4.20;99.90
10702;DHT22;5402;50.004;8.246;2024-03-08T02:08:00;4.10;99.90
10702;DHT22;5402;50.004;8.246;2024-03-08T02:10:29;4.10;99.90
10702;DHT22;5402;50.004;8.246;2024-03-08T02:12:56;4.00;99.90
10702;DHT22;5402;50.004;8.246;2024-03-08T02:15:23;4.00;99.90
10702;DHT22;5402;50.004;8.246;2024-03-08T02:17:51;4.00;99.90
10702;DHT22;5402;50.004;8.246;2024-03-08T02:20:18;3.90;99.90
10702;DHT22;5402;50.004;8.246;2024-03-08T02:22:46;3.80;99.90
10702;DHT22;5402;50.004;8.246;2024-03-08T02:25:13;3.80;99.90
10702;DHT22;5402;50.004;8.246;2024-03-08T02:27:41;3.80;99.90
10702;DHT22;5402;50.004;8.246;2024-03-08T02:30:09;3.80;99.90
10702;DHT22;5402;50.004;8.246;2024-03-08T02:32:38;3.70;99.90
10702;DHT22;5402;50.004;8.246;2024-03-08T02:35:05;3.70;99.90
10702;DHT22;5402;50.004;8.246;2024-03-08T02:37:31;3.70;99.90
10702;DHT22;5402;50.004;8.246;2024-03-08T02:39:59;3.70;99.90
10702;DHT22;5402;50.004;8.246;2024-03-08T02:42:26;3.70;99.90
10702;DHT22;5402;50.004;8.246;2024-03-08T02:44:53;3.60;99.90
10702;DHT22;5402;50.004;8.246;2024-03-08T02:47:19;3.60;99.90
10702;DHT22;5402;50.004;8.246;2024-03-08T02:49:46;3.60;99.90
10702;DHT22;5402;50.004;8.246;2024-03-08T02:52:13;3.50;99.90
10702;DHT22;5402;50.004;8.246;2024-03-08T02:54:41;3.50;99.90
10702;DHT22;5402;50.004;8.246;2024-03-08T02:57:10;3.50;99.90
10702;DHT22;5402;50.004;8.246;2024-03-08T02:59:37;3.50;99.90
10702;DHT22;5402;50.004;8.246;2024-03-08T03:02:05;3.40;99.90
10702;DHT22;5402;50.004;8.246;2024-03-08T03:04:33;3.40;99.90
10702;DHT22;5402;50.004;8.246;2024-03-08T03:07:00;3.40;99.90
10702;DHT22;5402;50.004;8.246;2024-03-08T03:09:26;3.30;99.90
10702;DHT22;5402;50.004;8.246;2024-03-08T03:11:53;3.30;99.90
10702;DHT22;5402;50.004;8.246;2024-03-08T03:14:22;3.30;99.90
10702;DHT22;5402;50.004;8.246;2024-03-08T03:16:49;3.30;99.90
10702;DHT22;5402;50.004;8.246;2024-03-08T03:19:15;3.30;99.90
10702;DHT22;5402;50.004;8.246;2024-03-08T03:21:42;3.30;99.90
10702;DHT22;5402;50.004;8.246;2024-03-08T03:24:09;3.30;99.90
10702;DHT22;5402;50.004;8.246;2024-03-08T03:26:36;3.30;99.90
10702;DHT22;5402;50.004;8.246;2024-03-08T03:29:04;3.20;99.90
10702;DHT22;5402;50.004;8.246;2024-03-08T03:31:35;3.20;99.90
10702;DHT22;5402;50.004;8.246;2024-03-08T03:34:02;3.20;99.90
10702;DHT22;5402;50.004;8.246;2024-03-08T03:36:29;3.20;99.90
10702;DHT22;5402;50.004;8.246;2024-03-08T03:38:56;3.20;99.90
10702;DHT22;5402;50.004;8.246;2024-03-08T03:41:35;3.20;99.90
10702;DHT22;5402;50.004;8.246;2024-03-08T03:44:02;3.10;99.90
10702;DHT22;5402;50.004;8.246;2024-03-08T03:46:28;3.10;99.90
10702;DHT22;5402;50.004;8.246;2024-03-08T03:48:56;3.10;99.90
10702;DHT22;5402;50.004;8.246;2024-03-08T03:51:23;3.10;99.90
10702;DHT22;5402;50.004;8.246;2024-03-08T03:53:50;3.00;99.90
10702;DHT22;5402;50.004;8.246;2024-03-08T03:56:16;3.00;99.90
10702;DHT22;5402;50.004;8.246;2024-03-08T03:58:43;3.00;99.90
10702;DHT22;5402;50.004;8.246;2024-03-08T04:01:10;3.00;99.90
10702;DHT22;5402;50.004;8.246;2024-03-08T04:03:37;3.00;99.90
10702;DHT22;5402;50.004;8.246;2024-03-08T04:06:05;3.00;99.90
10702;DHT22;5402;50.004;8.246;2024-03-08T04:08:32;2.90;99.90
10702;DHT22;5402;50.004;8.246;2024-03-08T04:11:00;3.00;99.90
10702;DHT22;5402;50.004;8.246;2024-03-08T04:13:26;2.90;99.90
10702;DHT22;5402;50.004;8.246;2024-03-08T04:15:53;2.90;99.90
10702;DHT22;5402;50.004;8.246;2024-03-08T04:18:20;2.90;99.90
10702;DHT22;5402;50.004;8.246;2024-03-08T04:20:47;2.90;99.90
10702;DHT22;5402;50.004;8.246;2024-03-08T04:23:15;2.90;99.90
10702;DHT22;5402;50.004;8.246;2024-03-08T04:25:43;2.80;99.90
10702;DHT22;5402;50.004;8.246;2024-03-08T04:28:09;2.80;99.90
10702;DHT22;5402;50.004;8.246;2024-03-08T04:30:37;2.80;99.90
10702;DHT22;5402;50.004;8.246;2024-03-08T04:33:05;2.80;99.90
10702;DHT22;5402;50.004;8.246;2024-03-08T04:35:32;2.80;99.90
10702;DHT22;5402;50.004;8.246;2024-03-08T04:37:59;2.70;99.90
10702;DHT22;5402;50.004;8.246;2024-03-08T04:40:27;2.70;99.90
10702;DHT22;5402;50.004;8.246;2024-03-08T04:42:54;2.70;99.90
10702;DHT22;5402;50.004;8.246;2024-03-08T04:45:20;2.70;99.90
10702;DHT22;5402;50.004;8.246;2024-03-08T04:47:47;2.60;99.90
10702;DHT22;5402;50.004;8.246;2024-03-08T04:50:14;2.70;99.90
10702;DHT22;5402;50.004;8.246;2024-03-08T04:52:41;2.70;99.90
10702;DHT22;5402;50.004;8.246;2024-03-08T04:55:08;2.70;99.90
10702;DHT22;5402;50.004;8.246;2024-03-08T04:57:36;2.60;99.90
10702;DHT22;5402;50.004;8.246;2024-03-08T05:00:03;2.60;99.90
10702;DHT22;5402;50.004;8.246;2024-03-08T05:02:36;2.50;99.90
10702;DHT22;5402;50.004;8.246;2024-03-08T05:05:04;2.50;99.90
10702;DHT22;5402;50.004;8.246;2024-03-08T05:07:32;2.60;99.90
10702;DHT22;5402;50.004;8.246;2024-03-08T05:09:59;2.50;99.90
10702;DHT22;5402;50.004;8.246;2024-03-08T05:12:26;2.50;99.90
10702;DHT22;5402;50.004;8.246;2024-03-08T05:14:54;2.50;99.90
10702;DHT22;5402;50.004;8.246;2024-03-08T05:17:20;2.50;99.90
10702;DHT22;5402;50.004;8.246;2024-03-08T05:19:49;2.40;99.90
10702;DHT22;5402;50.004;8.246;2024-03-08T05:22:16;2.40;99.90
10702;DHT22;5402;50.004;8.246;2024-03-08T05:24:43;2.40;99.90
10702;DHT22;5402;50.004;8.246;2024-03-08T05:27:09;2.40;99.90
10702;DHT22;5402;50.004;8.246;2024-03-08T05:29:36;2.40;99.90
10702;DHT22;5402;50.004;8.246;2024-03-08T05:32:04;2.40;99.90
10702;DHT22;5402;50.004;8.246;2024-03-08T05:34:32;2.40;99.90
10702;DHT22;5402;50.004;8.246;2024-03-08T05:37:01;2.40;99.90
10702;DHT22;5402;50.004;8.246;2024-03-08T05:39:28;2.40;99.90
10702;DHT22;5402;50.004;8.246;2024-03-08T05:41:55;2.40;99.90
10702;DHT22;5402;50.004;8.246;2024-03-08T05:44:22;2.30;99.90
10702;DHT22;5402;50.004;8.246;2024-03-08T05:46:50;2.30;99.90
10702;DHT22;5402;50.004;8.246;2024-03-08T05:49:18;2.30;99.90
10702;DHT22;5402;50.004;8.246;2024-03-08T05:51:45;2.40;99.90
10702;DHT22;5402;50.004;8.246;2024-03-08T05:54:13;2.30;99.90
10702;DHT22;5402;50.004;8.246;2024-03-08T05:56:40;2.30;99.90
10702;DHT22;5402;50.004;8.246;2024-03-08T05:59:09;2.30;99.90
10702;DHT22;5402;50.004;8.246;2024-03-08T06:01:35;2.30;99.90
10702;DHT22;5402;50.004;8.246;2024-03-08T06:04:03;2.30;99.90
10702;DHT22;5402;50.004;8.246;2024-03-08T06:06:31;2.30;99.90
10702;DHT22;5402;50.004;8.246;2024-03-08T06:08:58;2.40;99.90
10702;DHT22;5402;50.004;8.246;2024-03-08T06:11:25;2.40;99.90
10702;DHT22;5402;50.004;8.246;2024-03-08T06:13:53;2.30;99.90
10702;DHT22;5402;50.004;8.246;2024-03-08T06:16:25;2.30;99.90
10702;DHT22;5402;50.004;8.246;2024-03-08T06:18:55;2.30;99.90
10702;DHT22;5402;50.004;8.246;2024-03-08T06:21:22;2.30;99.90
10702;DHT22;5402;50.004;8.246;2024-03-08T06:23:53;2.30;99.90
10702;DHT22;5402;50.004;8.246;2024-03-08T06:26:23;2.30;99.90
10702;DHT22;5402;50.004;8.246;2024-03-08T06:28:50;2.30;99.90
10702;DHT22;5402;50.004;8.246;2024-03-08T06:31:17;2.60;99.90
10702;DHT22;5402;50.004;8.246;2024-03-08T06:33:45;2.30;99.90
10702;DHT22;5402;50.004;8.246;2024-03-08T06:36:12;2.30;99.90
10702;DHT22;5402;50.004;8.246;2024-03-08T06:38:38;2.40;99.90
10702;DHT22;5402;50.004;8.246;2024-03-08T06:41:09;3.00;99.90
10702;DHT22;5402;50.004;8.246;2024-03-08T06:43:40;2.50;99.90
10702;DHT22;5402;50.004;8.246;2024-03-08T06:46:07;2.50;99.90
10702;DHT22;5402;50.004;8.246;2024-03-08T06:48:34;2.60;99.90
10702;DHT22;5402;50.004;8.246;2024-03-08T06:51:02;2.60;99.90
10702;DHT22;5402;50.004;8.246;2024-03-08T06:53:29;2.60;99.90
10702;DHT22;5402;50.004;8.246;2024-03-08T06:55:56;2.70;99.90
10702;DHT22;5402;50.004;8.246;2024-03-08T06:58:24;2.80;99.90
10702;DHT22;5402;50.004;8.246;2024-03-08T07:00:51;2.80;99.90
10702;DHT22;5402;50.004;8.246;2024-03-08T07:03:19;2.80;99.90
10702;DHT22;5402;50.004;8.246;2024-03-08T07:05:47;2.90;99.90
10702;DHT22;5402;50.004;8.246;2024-03-08T07:08:14;3.00;99.90
10702;DHT22;5402;50.004;8.246;2024-03-08T07:10:42;3.00;99.90
10702;DHT22;5402;50.004;8.246;2024-03-08T07:13:10;3.10;99.90
10702;DHT22;5402;50.004;8.246;2024-03-08T07:15:38;3.10;99.90
10702;DHT22;5402;50.004;8.246;2024-03-08T07:18:05;3.20;99.90
10702;DHT22;5402;50.004;8.246;2024-03-08T07:20:34;3.20;99.90
10702;DHT22;5402;50.004;8.246;2024-03-08T07:23:02;3.30;99.90
10702;DHT22;5402;50.004;8.246;2024-03-08T07:25:30;3.30;99.90
10702;DHT22;5402;50.004;8.246;2024-03-08T07:27:57;3.40;99.90
10702;DHT22;5402;50.004;8.246;2024-03-08T07:30:27;3.50;99.90
10702;DHT22;5402;50.004;8.246;2024-03-08T07:33:13;3.50;99.90
10702;DHT22;5402;50.004;8.246;2024-03-08T07:35:40;3.60;99.90
10702;DHT22;5402;50.004;8.246;2024-03-08T07:38:08;3.60;99.90
10702;DHT22;5402;50.004;8.246;2024-03-08T07:40:35;3.70;99.90
10702;DHT22;5402;50.004;8.246;2024-03-08T07:43:03;3.70;99.90
10702;DHT22;5402;50.004;8.246;2024-03-08T07:45:30;3.70;99.90
10702;DHT22;5402;50.004;8.246;2024-03-08T07:47:57;3.70;99.90
10702;DHT22;5402;50.004;8.246;2024-03-08T07:50:25;3.80;99.90
10702;DHT22;5402;50.004;8.246;2024-03-08T07:52:52;3.90;99.90
10702;DHT22;5402;50.004;8.246;2024-03-08T07:55:19;3.90;99.90
10702;DHT22;5402;50.004;8.246;2024-03-08T07:57:46;4.00;99.90
10702;DHT22;5402;50.004;8.246;2024-03-08T08:00:14;4.00;99.90
10702;DHT22;5402;50.004;8.246;2024-03-08T08:02:43;4.10;99.90
10702;DHT22;5402;50.004;8.246;2024-03-08T08:05:10;4.20;99.90
10702;DHT22;5402;50.004;8.246;2024-03-08T08:07:39;4.30;99.90
10702;DHT22;5402;50.004;8.246;2024-03-08T08:10:07;4.40;99.90
10702;DHT22;5402;50.004;8.246;2024-03-08T08:12:42;4.50;99.90
10702;DHT22;5402;50.004;8.246;2024-03-08T08:15:09;4.60;99.90
10702;DHT22;5402;50.004;8.246;2024-03-08T08:17:35;4.70;99.90
10702;DHT22;5402;50.004;8.246;2024-03-08T08:20:03;4.70;99.90
10702;DHT22;5402;50.004;8.246;2024-03-08T08:22:31;4.70;99.90
10702;DHT22;5402;50.004;8.246;2024-03-08T08:24:59;4.80;99.90
10702;DHT22;5402;50.004;8.246;2024-03-08T08:27:25;5.00;99.90
10702;DHT22;5402;50.004;8.246;2024-03-08T08:29:52;5.10;99.90
10702;DHT22;5402;50.004;8.246;2024-03-08T08:32:19;5.20;99.90
10702;DHT22;5402;50.004;8.246;2024-03-08T08:34:46;5.30;99.90
10702;DHT22;5402;50.004;8.246;2024-03-08T08:37:13;5.20;99.90
10702;DHT22;5402;50.004;8.246;2024-03-08T08:39:40;5.40;99.90
10702;DHT22;5402;50.004;8.246;2024-03-08T08:42:08;5.50;99.90
10702;DHT22;5402;50.004;8.246;2024-03-08T08:44:36;5.60;99.90
10702;DHT22;5402;50.004;8.246;2024-03-08T08:47:03;5.80;99.90
10702;DHT22;5402;50.004;8.246;2024-03-08T08:49:30;6.00;99.90
10702;DHT22;5402;50.004;8.246;2024-03-08T08:51:57;6.20;99.90
10702;DHT22;5402;50.004;8.246;2024-03-08T08:54:24;6.20;99.90
10702;DHT22;5402;50.004;8.246;2024-03-08T08:56:52;6.30;99.90
10702;DHT22;5402;50.004;8.246;2024-03-08T08:59:21;6.40;99.90
10702;DHT22;5402;50.004;8.246;2024-03-08T09:01:50;6.50;99.90
10702;DHT22;5402;50.004;8.246;2024-03-08T09:04:19;6.50;99.90
10702;DHT22;5402;50.004;8.246;2024-03-08T09:06:47;6.30;99.90
10702;DHT22;5402;50.004;8.246;2024-03-08T09:09:13;6.60;99.90
10702;DHT22;5402;50.004;8.246;2024-03-08T09:11:42;6.70;99.90
10702;DHT22;5402;50.004;8.246;2024-03-08T09:14:09;6.70;99.90
10702;DHT22;5402;50.004;8.246;2024-03-08T09:16:38;7.00;99.90
10702;DHT22;5402;50.004;8.246;2024-03-08T09:19:05;7.20;99.90
10702;DHT22;5402;50.004;8.246;2024-03-08T09:21:32;7.40;99.90
10702;DHT22;5402;50.004;8.246;2024-03-08T09:24:00;7.20;99.90
10702;DHT22;5402;50.004;8.246;2024-03-08T09:26:27;7.40;99.90
10702;DHT22;5402;50.004;8.246;2024-03-08T09:28:53;7.90;99.90
10702;DHT22;5402;50.004;8.246;2024-03-08T09:31:21;7.60;99.90
10702;DHT22;5402;50.004;8.246;2024-03-08T09:33:49;8.00;99.90
10702;DHT22;5402;50.004;8.246;2024-03-08T09:36:20;7.70;99.90
10702;DHT22;5402;50.004;8.246;2024-03-08T09:38:46;8.00;99.90
10702;DHT22;5402;50.004;8.246;2024-03-08T09:41:15;7.50;99.90
10702;DHT22;5402;50.004;8.246;2024-03-08T09:43:42;7.70;99.90
10702;DHT22;5402;50.004;8.246;2024-03-08T09:46:09;7.80;99.90
10702;DHT22;5402;50.004;8.246;2024-03-08T09:48:36;8.00;99.90
10702;DHT22;5402;50.004;8.246;2024-03-08T09:51:05;8.10;99.90
10702;DHT22;5402;50.004;8.246;2024-03-08T09:53:32;8.10;99.90
10702;DHT22;5402;50.004;8.246;2024-03-08T09:55:59;8.10;99.90
10702;DHT22;5402;50.004;8.246;2024-03-08T09:58:29;8.20;99.90
10702;DHT22;5402;50.004;8.246;2024-03-08T10:01:20;8.30;99.90
10702;DHT22;5402;50.004;8.246;2024-03-08T10:03:47;8.40;99.90
10702;DHT22;5402;50.004;8.246;2024-03-08T10:06:22;8.40;99.90
10702;DHT22;5402;50.004;8.246;2024-03-08T10:08:49;8.40;99.90
10702;DHT22;5402;50.004;8.246;2024-03-08T10:11:17;8.40;99.90
10702;DHT22;5402;50.004;8.246;2024-03-08T10:13:44;8.50;99.90
10702;DHT22;5402;50.004;8.246;2024-03-08T10:16:11;8.60;99.90
10702;DHT22;5402;50.004;8.246;2024-03-08T10:18:38;9.50;99.90
10702;DHT22;5402;50.004;8.246;2024-03-08T10:21:07;8.70;99.90
10702;DHT22;5402;50.004;8.246;2024-03-08T10:23:37;8.80;99.90
10702;DHT22;5402;50.004;8.246;2024-03-08T10:26:10;8.60;99.90
10702;DHT22;5402;50.004;8.246;2024-03-08T10:28:41;8.80;99.90
10702;DHT22;5402;50.004;8.246;2024-03-08T10:31:09;8.90;99.90
10702;DHT22;5402;50.004;8.246;2024-03-08T10:33:36;9.00;99.90
10702;DHT22;5402;50.004;8.246;2024-03-08T10:36:06;9.10;99.90
10702;DHT22;5402;50.004;8.246;2024-03-08T10:38:37;9.10;99.90
10702;DHT22;5402;50.004;8.246;2024-03-08T10:41:05;9.10;99.90
10702;DHT22;5402;50.004;8.246;2024-03-08T10:43:44;9.10;99.90
10702;DHT22;5402;50.004;8.246;2024-03-08T10:46:24;9.10;99.90
10702;DHT22;5402;50.004;8.246;2024-03-08T10:48:58;9.10;99.90
10702;DHT22;5402;50.004;8.246;2024-03-08T10:51:29;9.10;99.90
10702;DHT22;5402;50.004;8.246;2024-03-08T10:53:59;9.10;99.90
10702;DHT22;5402;50.004;8.246;2024-03-08T10:56:28;9.10;99.90
10702;DHT22;5402;50.004;8.246;2024-03-08T10:58:55;9.20;99.90
10702;DHT22;5402;50.004;8.246;2024-03-08T11:01:23;9.20;99.90
10702;DHT22;5402;50.004;8.246;2024-03-08T11:03:51;9.30;99.90
10702;DHT22;5402;50.004;8.246;2024-03-08T11:06:22;9.50;99.90
10702;DHT22;5402;50.004;8.246;2024-03-08T11:08:49;9.60;99.90
10702;DHT22;5402;50.004;8.246;2024-03-08T11:11:28;9.70;99.90
10702;DHT22;5402;50.004;8.246;2024-03-08T11:14:00;9.60;99.90
10702;DHT22;5402;50.004;8.246;2024-03-08T11:16:39;9.60;99.90
10702;DHT22;5402;50.004;8.246;2024-03-08T11:19:25;9.50;99.90
10702;DHT22;5402;50.004;8.246;2024-03-08T11:21:58;9.80;99.90
10702;DHT22;5402;50.004;8.246;2024-03-08T11:24:24;10.00;99.90
10702;DHT22;5402;50.004;8.246;2024-03-08T11:26:57;9.90;99.90
10702;DHT22;5402;50.004;8.246;2024-03-08T11:29:37;10.00;99.90
10702;DHT22;5402;50.004;8.246;2024-03-08T11:32:07;10.10;99.90
10702;DHT22;5402;50.004;8.246;2024-03-08T11:34:35;10.20;99.90
10702;DHT22;5402;50.004;8.246;2024-03-08T11:37:04;10.20;99.90
10702;DHT22;5402;50.004;8.246;2024-03-08T11:39:31;10.30;99.90
10702;DHT22;5402;50.004;8.246;2024-03-08T11:42:01;10.50;99.90
10702;DHT22;5402;50.004;8.246;2024-03-08T11:44:27;10.40;99.90
10702;DHT22;5402;50.004;8.246;2024-03-08T11:46:54;10.40;99.90
10702;DHT22;5402;50.004;8.246;2024-03-08T11:49:32;10.50;99.90
10702;DHT22;5402;50.004;8.246;2024-03-08T11:52:03;10.40;99.90
10702;DHT22;5402;50.004;8.246;2024-03-08T11:54:30;10.40;99.90
10702;DHT22;5402;50.004;8.246;2024-03-08T11:56:57;10.80;99.90
10702;DHT22;5402;50.004;8.246;2024-03-08T11:59:27;11.40;99.90
10702;DHT22;5402;50.004;8.246;2024-03-08T12:02:02;10.60;99.90
10702;DHT22;5402;50.004;8.246;2024-03-08T12:04:32;10.40;99.90
10702;DHT22;5402;50.004;8.246;2024-03-08T12:07:02;10.10;99.90
10702;DHT22;5402;50.004;8.246;2024-03-08T12:09:34;10.20;99.90
10702;DHT22;5402;50.004;8.246;2024-03-08T12:12:02;10.30;99.90
10702;DHT22;5402;50.004;8.246;2024-03-08T12:14:33;10.20;99.90
10702;DHT22;5402;50.004;8.246;2024-03-08T12:17:00;10.30;99.90
10702;DHT22;5402;50.004;8.246;2024-03-08T12:19:27;10.30;99.90
10702;DHT22;5402;50.004;8.246;2024-03-08T12:21:55;10.40;99.90
10702;DHT22;5402;50.004;8.246;2024-03-08T12:24:22;10.30;99.90
10702;DHT22;5402;50.004;8.246;2024-03-08T12:26:49;10.20;99.90
10702;DHT22;5402;50.004;8.246;2024-03-08T12:29:18;10.50;99.90
10702;DHT22;5402;50.004;8.246;2024-03-08T12:31:51;10.50;99.90
10702;DHT22;5402;50.004;8.246;2024-03-08T12:34:18;10.50;99.90
10702;DHT22;5402;50.004;8.246;2024-03-08T12:36:46;10.60;99.90
10702;DHT22;5402;50.004;8.246;2024-03-08T12:39:15;10.40;99.90
10702;DHT22;5402;50.004;8.246;2024-03-08T12:41:43;10.40;99.90
10702;DHT22;5402;50.004;8.246;2024-03-08T12:44:10;10.40;99.90
10702;DHT22;5402;50.004;8.246;2024-03-08T12:46:37;10.40;99.90
10702;DHT22;5402;50.004;8.246;2024-03-08T12:49:08;10.30;99.90
10702;DHT22;5402;50.004;8.246;2024-03-08T12:51:36;10.20;99.90
10702;DHT22;5402;50.004;8.246;2024-03-08T12:54:04;10.30;99.90
10702;DHT22;5402;50.004;8.246;2024-03-08T12:56:33;10.20;99.90
10702;DHT22;5402;50.004;8.246;2024-03-08T12:59:00;10.40;99.90
10702;DHT22;5402;50.004;8.246;2024-03-08T13:01:28;10.60;99.90
10702;DHT22;5402;50.004;8.246;2024-03-08T13:03:55;10.70;99.90
10702;DHT22;5402;50.004;8.246;2024-03-08T13:06:23;10.60;99.90
10702;DHT22;5402;50.004;8.246;2024-03-08T13:08:51;10.60;99.90
10702;DHT22;5402;50.004;8.246;2024-03-08T13:11:19;10.50;99.90
10702;DHT22;5402;50.004;8.246;2024-03-08T13:13:46;10.50;99.90
10702;DHT22;5402;50.004;8.246;2024-03-08T13:16:13;10.50;99.90
10702;DHT22;5402;50.004;8.246;2024-03-08T13:18:40;10.50;99.90
10702;DHT22;5402;50.004;8.246;2024-03-08T13:21:08;10.60;99.90
10702;DHT22;5402;50.004;8.246;2024-03-08T13:23:37;10.90;99.90
10702;DHT22;5402;50.004;8.246;2024-03-08T13:26:05;10.80;99.90
10702;DHT22;5402;50.004;8.246;2024-03-08T13:28:32;10.90;99.90
10702;DHT22;5402;50.004;8.246;2024-03-08T13:31:04;10.80;99.90
10702;DHT22;5402;50.004;8.246;2024-03-08T13:33:32;10.70;99.90
10702;DHT22;5402;50.004;8.246;2024-03-08T13:36:01;10.80;99.90
10702;DHT22;5402;50.004;8.246;2024-03-08T13:38:28;10.60;99.90
10702;DHT22;5402;50.004;8.246;2024-03-08T13:40:58;10.70;99.90
10702;DHT22;5402;50.004;8.246;2024-03-08T13:43:25;10.70;99.90
10702;DHT22;5402;50.004;8.246;2024-03-08T13:45:54;10.60;99.90
10702;DHT22;5402;50.004;8.246;2024-03-08T13:48:21;10.70;99.90
10702;DHT22;5402;50.004;8.246;2024-03-08T13:50:48;10.80;99.90
10702;DHT22;5402;50.004;8.246;2024-03-08T13:53:15;10.70;99.90
10702;DHT22;5402;50.004;8.246;2024-03-08T13:55:42;10.70;99.90
10702;DHT22;5402;50.004;8.246;2024-03-08T13:58:10;10.70;99.90
10702;DHT22;5402;50.004;8.246;2024-03-08T14:00:39;10.70;99.90
10702;DHT22;5402;50.004;8.246;2024-03-08T14:03:09;10.80;99.90
10702;DHT22;5402;50.004;8.246;2024-03-08T14:05:39;10.80;99.90
10702;DHT22;5402;50.004;8.246;2024-03-08T14:08:07;11.00;99.90
10702;DHT22;5402;50.004;8.246;2024-03-08T14:10:33;10.80;99.90
10702;DHT22;5402;50.004;8.246;2024-03-08T14:13:03;10.90;99.90
10702;DHT22;5402;50.004;8.246;2024-03-08T14:15:31;10.90;99.90
10702;DHT22;5402;50.004;8.246;2024-03-08T14:17:58;10.90;99.90
10702;DHT22;5402;50.004;8.246;2024-03-08T14:20:25;10.90;99.90
10702;DHT22;5402;50.004;8.246;2024-03-08T14:22:52;10.90;99.90
10702;DHT22;5402;50.004;8.246;2024-03-08T14:25:20;11.00;99.90
10702;DHT22;5402;50.004;8.246;2024-03-08T14:27:50;10.80;99.90
10702;DHT22;5402;50.004;8.246;2024-03-08T14:30:19;11.00;99.90
10702;DHT22;5402;50.004;8.246;2024-03-08T14:32:58;11.00;99.90
10702;DHT22;5402;50.004;8.246;2024-03-08T14:35:25;11.00;99.90
10702;DHT22;5402;50.004;8.246;2024-03-08T14:37:52;10.90;99.90
10702;DHT22;5402;50.004;8.246;2024-03-08T14:40:19;10.90;99.90
10702;DHT22;5402;50.004;8.246;2024-03-08T14:42:47;10.90;99.90
10702;DHT22;5402;50.004;8.246;2024-03-08T14:45:15;10.90;99.90
10702;DHT22;5402;50.004;8.246;2024-03-08T14:47:41;10.80;99.90
10702;DHT22;5402;50.004;8.246;2024-03-08T14:50:10;10.80;99.90
10702;DHT22;5402;50.004;8.246;2024-03-08T14:52:38;11.00;99.90
10702;DHT22;5402;50.004;8.246;2024-03-08T14:55:05;11.00;99.90
10702;DHT22;5402;50.004;8.246;2024-03-08T14:57:32;10.90;99.90
10702;DHT22;5402;50.004;8.246;2024-03-08T14:59:59;11.00;99.90
10702;DHT22;5402;50.004;8.246;2024-03-08T15:02:31;11.00;99.90
10702;DHT22;5402;50.004;8.246;2024-03-08T15:04:59;11.00;99.90
10702;DHT22;5402;50.004;8.246;2024-03-08T15:07:28;10.90;99.90
10702;DHT22;5402;50.004;8.246;2024-03-08T15:09:56;11.00;99.90
10702;DHT22;5402;50.004;8.246;2024-03-08T15:12:23;11.10;99.90
10702;DHT22;5402;50.004;8.246;2024-03-08T15:14:51;11.10;99.90
10702;DHT22;5402;50.004;8.246;2024-03-08T15:17:18;11.20;99.90
10702;DHT22;5402;50.004;8.246;2024-03-08T15:19:47;11.10;99.90
10702;DHT22;5402;50.004;8.246;2024-03-08T15:22:14;11.20;99.90
10702;DHT22;5402;50.004;8.246;2024-03-08T15:24:44;11.10;99.90
10702;DHT22;5402;50.004;8.246;2024-03-08T15:27:11;11.10;99.90
10702;DHT22;5402;50.004;8.246;2024-03-08T15:29:38;11.10;99.90
10702;DHT22;5402;50.004;8.246;2024-03-08T15:32:05;11.20;99.90
10702;DHT22;5402;50.004;8.246;2024-03-08T15:34:32;11.10;99.90
10702;DHT22;5402;50.004;8.246;2024-03-08T15:37:03;11.10;99.90
10702;DHT22;5402;50.004;8.246;2024-03-08T15:39:30;11.00;99.90
10702;DHT22;5402;50.004;8.246;2024-03-08T15:42:00;11.00;99.90
10702;DHT22;5402;50.004;8.246;2024-03-08T15:44:26;11.00;99.90
10702;DHT22;5402;50.004;8.246;2024-03-08T15:46:53;11.00;99.90
10702;DHT22;5402;50.004;8.246;2024-03-08T15:49:20;11.00;99.90
10702;DHT22;5402;50.004;8.246;2024-03-08T15:51:47;11.00;99.90
10702;DHT22;5402;50.004;8.246;2024-03-08T15:54:15;10.90;99.90
10702;DHT22;5402;50.004;8.246;2024-03-08T15:56:42;10.90;99.90
10702;DHT22;5402;50.004;8.246;2024-03-08T15:59:10;11.10;99.90
10702;DHT22;5402;50.004;8.246;2024-03-08T16:01:36;10.90;99.90